BVX1899 PHNL-CYYC
Flight info
| Callsign | BVX1899 |
|---|---|
| Flight time | N/A |
| Altitude | 33000 |
| Route | MKK5 APACK R463 AUNTI A332 HALLI/N0456F350 A332 HEKAB DCT ZANNG/N0451F370 A331 SEDAR C1418 HQM DCT TWISP DCT MENBO Q983 NORET IGVEP7 |
| Aircraft | B738/M-SDE2E3FGHIRWXY/LB1 |
Departure
| Time | N/A |
|---|---|
| Airport | Daniel K. Inouye International Airport (PHNL) |
Arrival
| Time | 2026-05-07 03:29 |
|---|---|
| Airport | Calgary International Airport (CYYC) |
| Time | Latitude | Longitude | Altitude | Speed | Heading |
|---|---|---|---|---|---|
| 2026-05-07 02:02 | 45.55363 | -126.63413 | 37284 ft | 461 kts | 45° |
| 2026-05-07 02:02 | 45.59537 | -126.56472 | 37288 ft | 461 kts | 45° |
| 2026-05-07 02:03 | 45.63664 | -126.49515 | 37290 ft | 461 kts | 46° |
| 2026-05-07 02:03 | 45.67790 | -126.42452 | 37298 ft | 462 kts | 46° |
| 2026-05-07 02:04 | 45.71867 | -126.35422 | 37279 ft | 462 kts | 46° |
| 2026-05-07 02:04 | 45.75977 | -126.28315 | 37281 ft | 463 kts | 46° |
| 2026-05-07 02:05 | 45.80058 | -126.21241 | 37281 ft | 463 kts | 46° |
| 2026-05-07 02:05 | 45.84174 | -126.14091 | 37286 ft | 464 kts | 46° |
| 2026-05-07 02:06 | 45.88256 | -126.06983 | 37276 ft | 464 kts | 46° |
| 2026-05-07 02:06 | 45.92365 | -125.99812 | 37274 ft | 464 kts | 46° |
| 2026-05-07 02:07 | 45.96469 | -125.92628 | 37272 ft | 464 kts | 46° |
| 2026-05-07 02:07 | 46.02590 | -125.81879 | 37269 ft | 464 kts | 46° |
| 2026-05-07 02:08 | 46.06678 | -125.74677 | 37266 ft | 464 kts | 46° |
| 2026-05-07 02:08 | 46.10726 | -125.67529 | 37266 ft | 463 kts | 46° |
| 2026-05-07 02:09 | 46.14801 | -125.60313 | 37274 ft | 463 kts | 46° |
| 2026-05-07 02:09 | 46.18842 | -125.53139 | 37262 ft | 462 kts | 46° |
| 2026-05-07 02:10 | 46.22899 | -125.45919 | 37263 ft | 462 kts | 46° |
| 2026-05-07 02:10 | 46.26918 | -125.38747 | 37264 ft | 462 kts | 46° |
| 2026-05-07 02:11 | 46.30961 | -125.31513 | 37268 ft | 462 kts | 46° |
| 2026-05-07 02:11 | 46.35004 | -125.24261 | 37255 ft | 462 kts | 46° |
| 2026-05-07 02:12 | 46.39019 | -125.17042 | 37249 ft | 463 kts | 46° |
| 2026-05-07 02:12 | 46.43058 | -125.09758 | 37250 ft | 463 kts | 46° |
| 2026-05-07 02:13 | 46.47073 | -125.02497 | 37257 ft | 464 kts | 45° |
| 2026-05-07 02:13 | 46.51117 | -124.95168 | 37242 ft | 464 kts | 46° |
| 2026-05-07 02:14 | 46.55156 | -124.87827 | 37237 ft | 465 kts | 46° |
| 2026-05-07 02:14 | 46.59166 | -124.80520 | 37256 ft | 465 kts | 45° |
| 2026-05-07 02:15 | 46.63206 | -124.73137 | 37237 ft | 465 kts | 45° |
| 2026-05-07 02:15 | 46.67207 | -124.65808 | 37241 ft | 465 kts | 45° |
| 2026-05-07 02:16 | 46.71235 | -124.58408 | 37244 ft | 465 kts | 46° |
| 2026-05-07 02:16 | 46.75254 | -124.51005 | 37256 ft | 465 kts | 45° |
| 2026-05-07 02:17 | 46.79241 | -124.43643 | 37241 ft | 465 kts | 45° |
| 2026-05-07 02:17 | 46.83246 | -124.36225 | 37239 ft | 464 kts | 45° |
| 2026-05-07 02:18 | 46.87234 | -124.28820 | 37237 ft | 464 kts | 45° |
| 2026-05-07 02:18 | 46.91209 | -124.21420 | 37235 ft | 463 kts | 45° |
| 2026-05-07 02:19 | 46.95122 | -124.13883 | 37223 ft | 468 kts | 52° |
| 2026-05-07 02:19 | 46.98166 | -124.05452 | 37231 ft | 474 kts | 58° |
| 2026-05-07 02:20 | 47.01074 | -123.96749 | 37237 ft | 474 kts | 58° |
| 2026-05-07 02:20 | 47.03990 | -123.88105 | 37241 ft | 475 kts | 57° |
| 2026-05-07 02:21 | 47.06957 | -123.79425 | 37234 ft | 476 kts | 57° |
| 2026-05-07 02:21 | 47.09941 | -123.70723 | 37232 ft | 477 kts | 57° |
| 2026-05-07 02:22 | 47.12907 | -123.62051 | 37210 ft | 477 kts | 57° |
| 2026-05-07 02:22 | 47.15862 | -123.53372 | 37213 ft | 478 kts | 57° |
| 2026-05-07 02:23 | 47.18829 | -123.44629 | 37185 ft | 478 kts | 57° |
| 2026-05-07 02:23 | 47.21794 | -123.35863 | 37175 ft | 477 kts | 57° |
| 2026-05-07 02:24 | 47.24722 | -123.27172 | 37173 ft | 477 kts | 57° |
| 2026-05-07 02:24 | 47.27663 | -123.18415 | 37177 ft | 477 kts | 57° |
| 2026-05-07 02:25 | 47.30596 | -123.09654 | 37174 ft | 476 kts | 57° |
| 2026-05-07 02:25 | 47.33501 | -123.00949 | 37176 ft | 475 kts | 57° |
| 2026-05-07 02:26 | 47.36414 | -122.92189 | 37182 ft | 474 kts | 57° |
| 2026-05-07 02:26 | 47.39313 | -122.83441 | 37194 ft | 474 kts | 57° |
| 2026-05-07 02:27 | 47.42192 | -122.74724 | 37197 ft | 474 kts | 57° |
| 2026-05-07 02:27 | 47.45065 | -122.65999 | 37191 ft | 475 kts | 57° |
| 2026-05-07 02:28 | 47.47949 | -122.57207 | 37196 ft | 475 kts | 57° |
| 2026-05-07 02:28 | 47.50810 | -122.48455 | 37196 ft | 475 kts | 57° |
| 2026-05-07 02:29 | 47.53686 | -122.39626 | 37192 ft | 475 kts | 57° |
| 2026-05-07 02:29 | 47.56536 | -122.30847 | 37192 ft | 475 kts | 57° |
| 2026-05-07 02:30 | 47.59394 | -122.22013 | 37194 ft | 475 kts | 57° |
| 2026-05-07 02:30 | 47.62249 | -122.13160 | 37201 ft | 476 kts | 57° |
| 2026-05-07 02:31 | 47.65079 | -122.04352 | 37204 ft | 476 kts | 57° |
| 2026-05-07 02:31 | 47.67923 | -121.95469 | 37200 ft | 476 kts | 57° |
| 2026-05-07 02:32 | 47.70761 | -121.86573 | 37210 ft | 476 kts | 57° |
| 2026-05-07 02:32 | 47.73576 | -121.77720 | 37217 ft | 476 kts | 57° |
| 2026-05-07 02:33 | 47.76397 | -121.68816 | 37196 ft | 475 kts | 57° |
| 2026-05-07 02:33 | 47.79185 | -121.59984 | 37194 ft | 475 kts | 57° |
| 2026-05-07 02:34 | 47.81982 | -121.51095 | 37183 ft | 474 kts | 57° |
| 2026-05-07 02:34 | 47.84780 | -121.42173 | 37143 ft | 476 kts | 57° |
| 2026-05-07 02:35 | 47.87553 | -121.33279 | 37198 ft | 474 kts | 57° |
| 2026-05-07 02:35 | 47.90345 | -121.24308 | 37114 ft | 475 kts | 57° |
| 2026-05-07 02:36 | 47.93103 | -121.15441 | 37154 ft | 473 kts | 57° |
| 2026-05-07 02:36 | 47.95869 | -121.06505 | 37109 ft | 473 kts | 57° |
| 2026-05-07 02:37 | 47.98616 | -120.97577 | 37108 ft | 474 kts | 57° |
| 2026-05-07 02:37 | 48.01351 | -120.88657 | 37098 ft | 477 kts | 57° |
| 2026-05-07 02:38 | 48.04112 | -120.79637 | 37096 ft | 475 kts | 58° |
| 2026-05-07 02:38 | 48.06836 | -120.70646 | 37041 ft | 478 kts | 57° |
| 2026-05-07 02:39 | 48.09604 | -120.61560 | 37008 ft | 479 kts | 58° |
| 2026-05-07 02:39 | 48.12338 | -120.52529 | 36914 ft | 477 kts | 57° |
| 2026-05-07 02:40 | 48.13705 | -120.48020 | 37026 ft | 474 kts | 58° |
| 2026-05-07 02:40 | 48.15063 | -120.43502 | 36986 ft | 476 kts | 58° |
| 2026-05-07 02:40 | 48.17770 | -120.34470 | 36950 ft | 480 kts | 58° |
| 2026-05-07 02:41 | 48.20513 | -120.25302 | 36927 ft | 482 kts | 57° |
| 2026-05-07 02:41 | 48.23248 | -120.16115 | 36940 ft | 484 kts | 57° |
| 2026-05-07 02:42 | 48.25990 | -120.06923 | 36923 ft | 481 kts | 55° |
| 2026-05-07 02:42 | 48.27627 | -120.02605 | 36930 ft | 470 kts | 46° |
| 2026-05-07 02:42 | 48.29639 | -119.98816 | 36910 ft | 459 kts | 38° |
| 2026-05-07 02:43 | 48.33870 | -119.91719 | 36880 ft | 458 kts | 38° |
| 2026-05-07 02:43 | 48.38096 | -119.84562 | 36876 ft | 458 kts | 38° |
| 2026-05-07 02:44 | 48.42305 | -119.77342 | 36874 ft | 457 kts | 39° |
| 2026-05-07 02:44 | 48.46460 | -119.70169 | 36866 ft | 456 kts | 38° |
| 2026-05-07 02:45 | 48.50605 | -119.62976 | 36868 ft | 456 kts | 38° |
| 2026-05-07 02:45 | 48.54765 | -119.55741 | 36850 ft | 456 kts | 39° |
| 2026-05-07 02:46 | 48.58923 | -119.48493 | 36849 ft | 456 kts | 39° |
| 2026-05-07 02:46 | 48.63059 | -119.41262 | 36854 ft | 457 kts | 39° |
| 2026-05-07 02:47 | 48.67200 | -119.34024 | 36870 ft | 457 kts | 38° |
| 2026-05-07 02:47 | 48.71365 | -119.26705 | 36857 ft | 459 kts | 39° |
| 2026-05-07 02:48 | 48.75517 | -119.19378 | 36855 ft | 460 kts | 39° |
| 2026-05-07 02:48 | 48.79694 | -119.11979 | 36875 ft | 462 kts | 38° |
| 2026-05-07 02:49 | 48.83882 | -119.04560 | 36847 ft | 463 kts | 39° |
| 2026-05-07 02:49 | 48.88042 | -118.97162 | 36846 ft | 462 kts | 38° |
| 2026-05-07 02:50 | 48.92209 | -118.89743 | 36850 ft | 461 kts | 39° |
| 2026-05-07 02:50 | 48.96370 | -118.82311 | 36870 ft | 461 kts | 39° |
| 2026-05-07 02:51 | 49.00465 | -118.74884 | 36862 ft | 460 kts | 39° |
| 2026-05-07 02:51 | 49.04595 | -118.67450 | 36871 ft | 459 kts | 38° |
| 2026-05-07 02:52 | 49.08744 | -118.60040 | 36844 ft | 459 kts | 39° |
| 2026-05-07 02:52 | 49.12875 | -118.52599 | 36909 ft | 459 kts | 39° |
| 2026-05-07 02:53 | 49.17012 | -118.45114 | 36873 ft | 461 kts | 39° |
| 2026-05-07 02:53 | 49.21119 | -118.37648 | 36863 ft | 462 kts | 39° |
| 2026-05-07 02:54 | 49.25258 | -118.30099 | 36859 ft | 462 kts | 39° |
| 2026-05-07 02:54 | 49.29351 | -118.22609 | 36845 ft | 460 kts | 39° |
| 2026-05-07 02:55 | 49.33467 | -118.15116 | 36869 ft | 457 kts | 39° |
| 2026-05-07 02:55 | 49.37506 | -118.07662 | 36857 ft | 457 kts | 39° |
| 2026-05-07 02:56 | 49.41577 | -118.00129 | 36842 ft | 458 kts | 39° |
| 2026-05-07 02:56 | 49.45663 | -117.92583 | 36840 ft | 459 kts | 39° |
| 2026-05-07 02:57 | 49.49717 | -117.85070 | 36859 ft | 460 kts | 40° |
| 2026-05-07 02:57 | 49.53800 | -117.77466 | 36849 ft | 462 kts | 40° |
| 2026-05-07 02:58 | 49.57892 | -117.69835 | 36819 ft | 460 kts | 40° |
| 2026-05-07 02:58 | 49.61932 | -117.62282 | 36835 ft | 459 kts | 40° |
| 2026-05-07 02:59 | 49.65970 | -117.54714 | 36887 ft | 458 kts | 40° |
| 2026-05-07 02:59 | 49.70049 | -117.47076 | 36870 ft | 463 kts | 40° |
| 2026-05-07 03:00 | 49.73971 | -117.39656 | 36858 ft | 466 kts | 40° |
| 2026-05-07 03:00 | 49.77542 | -117.32879 | 36897 ft | 467 kts | 41° |
| 2026-05-07 03:01 | 49.81658 | -117.25072 | 36868 ft | 465 kts | 40° |
| 2026-05-07 03:01 | 49.85722 | -117.17327 | 36843 ft | 461 kts | 41° |
| 2026-05-07 03:02 | 49.89743 | -117.09688 | 36902 ft | 459 kts | 41° |
| 2026-05-07 03:02 | 49.93799 | -117.01940 | 36878 ft | 464 kts | 42° |
| 2026-05-07 03:03 | 49.97868 | -116.94107 | 36526 ft | 472 kts | 41° |
| 2026-05-07 03:03 | 49.99940 | -116.90136 | 36025 ft | 471 kts | 42° |
| 2026-05-07 03:03 | 50.01970 | -116.86239 | 35500 ft | 469 kts | 42° |
| 2026-05-07 03:04 | 50.04025 | -116.82261 | 34882 ft | 471 kts | 43° |
| 2026-05-07 03:04 | 50.06082 | -116.78274 | 34238 ft | 474 kts | 43° |
| 2026-05-07 03:04 | 50.08152 | -116.74263 | 33683 ft | 473 kts | 43° |
| 2026-05-07 03:04 | 50.10202 | -116.70283 | 33200 ft | 469 kts | 43° |
| 2026-05-07 03:05 | 50.12212 | -116.66375 | 32751 ft | 466 kts | 43° |
| 2026-05-07 03:05 | 50.14229 | -116.62448 | 32266 ft | 462 kts | 44° |
| 2026-05-07 03:05 | 50.16236 | -116.58539 | 31833 ft | 458 kts | 44° |
| 2026-05-07 03:05 | 50.18226 | -116.54662 | 31417 ft | 455 kts | 45° |
| 2026-05-07 03:06 | 50.20192 | -116.50821 | 30973 ft | 452 kts | 46° |
| 2026-05-07 03:06 | 50.22123 | -116.47040 | 30561 ft | 448 kts | 46° |
| 2026-05-07 03:06 | 50.24066 | -116.43236 | 30124 ft | 445 kts | 46° |
| 2026-05-07 03:06 | 50.25989 | -116.39463 | 29655 ft | 442 kts | 46° |
| 2026-05-07 03:07 | 50.27908 | -116.35717 | 29170 ft | 437 kts | 47° |
| 2026-05-07 03:07 | 50.29778 | -116.32028 | 28917 ft | 430 kts | 47° |
| 2026-05-07 03:07 | 50.33437 | -116.24797 | 28900 ft | 415 kts | 46° |
| 2026-05-07 03:08 | 50.35204 | -116.21306 | 28904 ft | 403 kts | 47° |
| 2026-05-07 03:08 | 50.36898 | -116.17955 | 28879 ft | 391 kts | 47° |
| 2026-05-07 03:08 | 50.38493 | -116.14566 | 28732 ft | 385 kts | 54° |
| 2026-05-07 03:08 | 50.39701 | -116.10809 | 28434 ft | 386 kts | 66° |
| 2026-05-07 03:09 | 50.40615 | -116.06835 | 27965 ft | 388 kts | 68° |
| 2026-05-07 03:09 | 50.41478 | -116.02843 | 27246 ft | 396 kts | 68° |
| 2026-05-07 03:09 | 50.42380 | -115.98636 | 26011 ft | 417 kts | 68° |
| 2026-05-07 03:09 | 50.43321 | -115.94270 | 25144 ft | 422 kts | 68° |
| 2026-05-07 03:10 | 50.44265 | -115.89918 | 24473 ft | 418 kts | 68° |
| 2026-05-07 03:10 | 50.45201 | -115.85621 | 23905 ft | 413 kts | 68° |
| 2026-05-07 03:10 | 50.46120 | -115.81428 | 23451 ft | 411 kts | 68° |
| 2026-05-07 03:10 | 50.47053 | -115.77181 | 22940 ft | 410 kts | 68° |
| 2026-05-07 03:11 | 50.47979 | -115.72957 | 22497 ft | 408 kts | 68° |
| 2026-05-07 03:11 | 50.48897 | -115.68764 | 22065 ft | 404 kts | 68° |
| 2026-05-07 03:11 | 50.49806 | -115.64604 | 21668 ft | 401 kts | 68° |
| 2026-05-07 03:11 | 50.50705 | -115.60478 | 21264 ft | 398 kts | 68° |
| 2026-05-07 03:12 | 50.51588 | -115.56425 | 20865 ft | 395 kts | 68° |
| 2026-05-07 03:12 | 50.52476 | -115.52339 | 20468 ft | 393 kts | 68° |
| 2026-05-07 03:12 | 50.53355 | -115.48284 | 20058 ft | 390 kts | 68° |
| 2026-05-07 03:12 | 50.54225 | -115.44261 | 19656 ft | 387 kts | 68° |
| 2026-05-07 03:13 | 50.55078 | -115.40261 | 19303 ft | 383 kts | 68° |
| 2026-05-07 03:13 | 50.55918 | -115.36346 | 18888 ft | 383 kts | 68° |
| 2026-05-07 03:13 | 50.56768 | -115.32385 | 18497 ft | 380 kts | 68° |
| 2026-05-07 03:13 | 50.57609 | -115.28442 | 18084 ft | 379 kts | 68° |
| 2026-05-07 03:14 | 50.58444 | -115.24512 | 17761 ft | 374 kts | 68° |
| 2026-05-07 03:14 | 50.59279 | -115.20602 | 17373 ft | 377 kts | 68° |
| 2026-05-07 03:14 | 50.60912 | -115.12900 | 16618 ft | 370 kts | 68° |
| 2026-05-07 03:15 | 50.61451 | -115.10351 | 16368 ft | 368 kts | 68° |
| 2026-05-07 03:15 | 50.62256 | -115.06536 | 15987 ft | 366 kts | 68° |
| 2026-05-07 03:15 | 50.63319 | -115.01504 | 15466 ft | 364 kts | 68° |
| 2026-05-07 03:15 | 50.64123 | -114.97709 | 15030 ft | 365 kts | 68° |
| 2026-05-07 03:16 | 50.64656 | -114.95196 | 14735 ft | 365 kts | 68° |
| 2026-05-07 03:16 | 50.65455 | -114.91403 | 14358 ft | 362 kts | 68° |
| 2026-05-07 03:16 | 50.66246 | -114.87645 | 14010 ft | 360 kts | 68° |
| 2026-05-07 03:16 | 50.67273 | -114.82743 | 13770 ft | 347 kts | 69° |
| 2026-05-07 03:17 | 50.67763 | -114.80377 | 13674 ft | 339 kts | 69° |
| 2026-05-07 03:17 | 50.68486 | -114.76884 | 13504 ft | 326 kts | 68° |
| 2026-05-07 03:17 | 50.69178 | -114.73542 | 13344 ft | 315 kts | 68° |
| 2026-05-07 03:17 | 50.69847 | -114.70312 | 13258 ft | 305 kts | 68° |
| 2026-05-07 03:18 | 50.70505 | -114.67159 | 13109 ft | 297 kts | 66° |
| 2026-05-07 03:18 | 50.71542 | -114.64451 | 12895 ft | 284 kts | 41° |
| 2026-05-07 03:18 | 50.72903 | -114.62286 | 12685 ft | 281 kts | 41° |
| 2026-05-07 03:18 | 50.74269 | -114.60093 | 12418 ft | 280 kts | 41° |
| 2026-05-07 03:19 | 50.75625 | -114.57898 | 12173 ft | 277 kts | 42° |
| 2026-05-07 03:19 | 50.76966 | -114.55715 | 11908 ft | 275 kts | 42° |
| 2026-05-07 03:19 | 50.78278 | -114.53573 | 11647 ft | 273 kts | 42° |
| 2026-05-07 03:19 | 50.79596 | -114.51417 | 11378 ft | 272 kts | 43° |
| 2026-05-07 03:20 | 50.80910 | -114.49268 | 11121 ft | 270 kts | 42° |
| 2026-05-07 03:20 | 50.82246 | -114.47204 | 10869 ft | 268 kts | 41° |
| 2026-05-07 03:20 | 50.83578 | -114.45199 | 10619 ft | 266 kts | 41° |
| 2026-05-07 03:20 | 50.84913 | -114.43189 | 10291 ft | 265 kts | 41° |
| 2026-05-07 03:21 | 50.86258 | -114.41155 | 9873 ft | 265 kts | 42° |
| 2026-05-07 03:21 | 50.87595 | -114.39124 | 9526 ft | 266 kts | 42° |
| 2026-05-07 03:21 | 50.88926 | -114.37096 | 9322 ft | 263 kts | 42° |
| 2026-05-07 03:21 | 50.90227 | -114.35111 | 9188 ft | 256 kts | 42° |
| 2026-05-07 03:22 | 50.91321 | -114.32980 | 9033 ft | 253 kts | 64° |
| 2026-05-07 03:22 | 50.91687 | -114.30275 | 8835 ft | 252 kts | 86° |
| 2026-05-07 03:22 | 50.91650 | -114.27488 | 8615 ft | 254 kts | 91° |
| 2026-05-07 03:22 | 50.91550 | -114.24724 | 8379 ft | 254 kts | 91° |
| 2026-05-07 03:23 | 50.91456 | -114.21929 | 8134 ft | 254 kts | 91° |
| 2026-05-07 03:23 | 50.91371 | -114.19127 | 7888 ft | 254 kts | 92° |
| 2026-05-07 03:23 | 50.91292 | -114.16355 | 7690 ft | 248 kts | 91° |
| 2026-05-07 03:23 | 50.91266 | -114.13641 | 7439 ft | 245 kts | 89° |
| 2026-05-07 03:24 | 50.91272 | -114.10969 | 7213 ft | 238 kts | 89° |
| 2026-05-07 03:24 | 50.91279 | -114.08410 | 6999 ft | 232 kts | 89° |
| 2026-05-07 03:24 | 50.91344 | -114.05853 | 6761 ft | 231 kts | 77° |
| 2026-05-07 03:24 | 50.92143 | -114.03748 | 6620 ft | 224 kts | 35° |
| 2026-05-07 03:25 | 50.93585 | -114.02871 | 6613 ft | 224 kts | 11° |
| 2026-05-07 03:25 | 50.95118 | -114.02459 | 6397 ft | 227 kts | 6° |
| 2026-05-07 03:25 | 50.96717 | -114.02192 | 6105 ft | 227 kts | 2° |
| 2026-05-07 03:25 | 50.98263 | -114.02123 | 5808 ft | 222 kts | 359° |
| 2026-05-07 03:26 | 50.99769 | -114.02129 | 5515 ft | 210 kts | 359° |
| 2026-05-07 03:26 | 51.01177 | -114.02134 | 5244 ft | 196 kts | 0° |
| 2026-05-07 03:26 | 51.02496 | -114.02135 | 4991 ft | 183 kts | 1° |
| 2026-05-07 03:26 | 51.03715 | -114.02135 | 4770 ft | 171 kts | 1° |
| 2026-05-07 03:27 | 51.04876 | -114.02134 | 4560 ft | 167 kts | 1° |
| 2026-05-07 03:27 | 51.06019 | -114.02135 | 4322 ft | 161 kts | 2° |
| 2026-05-07 03:27 | 51.07134 | -114.02124 | 4118 ft | 159 kts | 4° |
| 2026-05-07 03:27 | 51.08246 | -114.02144 | 3891 ft | 159 kts | 5° |
| 2026-05-07 03:28 | 51.09331 | -114.02145 | 3684 ft | 161 kts | 4° |
| 2026-05-07 03:28 | 51.10450 | -114.02137 | 3557 ft | 152 kts | 2° |
| 2026-05-07 03:28 | 51.11388 | -114.02137 | 3556 ft | 117 kts | 360° |
| 2026-05-07 03:28 | 51.12087 | -114.02137 | 3560 ft | 83 kts | 360° |
| 2026-05-07 03:29 | 51.12543 | -114.02135 | 3557 ft | 49 kts | 0° |
| 2026-05-07 03:29 | 51.12790 | -114.02029 | 3557 ft | 30 kts | 28° |
| 2026-05-07 03:29 | 51.12891 | -114.01897 | 3558 ft | 15 kts | 75° |
| 2026-05-07 03:29 | 51.12838 | -114.01796 | 3558 ft | 13 kts | 173° |
| 2026-05-07 03:30 | 51.12749 | -114.01794 | 3558 ft | 13 kts | 178° |
| 2026-05-07 03:30 | 51.12663 | -114.01794 | 3558 ft | 12 kts | 180° |
| 2026-05-07 03:30 | 51.12604 | -114.01714 | 3558 ft | 12 kts | 99° |
| 2026-05-07 03:30 | 51.12602 | -114.01561 | 3558 ft | 17 kts | 90° |
| 2026-05-07 03:31 | 51.12603 | -114.01331 | 3558 ft | 24 kts | 90° |
| 2026-05-07 03:31 | 51.12611 | -114.01050 | 3558 ft | 25 kts | 86° |
| 2026-05-07 03:31 | 51.12613 | -114.00787 | 3558 ft | 21 kts | 90° |
| 2026-05-07 03:31 | 51.12635 | -114.00652 | 3558 ft | 11 kts | 34° |
| 2026-05-07 03:32 | 51.12712 | -114.00643 | 3558 ft | 11 kts | 359° |
| 2026-05-07 03:32 | 51.12788 | -114.00643 | 3558 ft | 11 kts | 0° |
| 2026-05-07 03:32 | 51.12833 | -114.00620 | 3558 ft | 6 kts | 56° |
| 2026-05-07 03:32 | 51.12844 | -114.00552 | 3558 ft | 6 kts | 77° |
| 2026-05-07 03:33 | 51.12852 | -114.00497 | 3558 ft | 2 kts | 78° |
| 2026-05-07 03:33 | 51.12853 | -114.00492 | 3558 ft | 0 kts | 78° |